createdAt,value
2018-03-15T00:01:05.636Z,987.67
2018-03-15T00:02:15.631Z,987.72
2018-03-15T00:03:24.825Z,987.74
2018-03-15T00:04:34.827Z,987.74
2018-03-15T00:05:44.819Z,987.72
2018-03-15T00:06:54.808Z,987.72
2018-03-15T00:08:04.583Z,987.72
2018-03-15T00:09:13.768Z,987.78
2018-03-15T00:10:23.755Z,987.77
2018-03-15T00:11:33.487Z,987.79
2018-03-15T00:12:43.493Z,987.8
2018-03-15T00:13:53.487Z,987.79
2018-03-15T00:15:03.483Z,987.83
2018-03-15T00:16:13.226Z,987.84
2018-03-15T00:17:22.953Z,987.87
2018-03-15T00:18:32.952Z,987.82
2018-03-15T00:19:42.941Z,987.85
2018-03-15T00:20:52.932Z,987.86
2018-03-15T00:22:02.661Z,987.85
2018-03-15T00:23:12.651Z,987.88
2018-03-15T00:24:22.372Z,987.87
2018-03-15T00:25:31.839Z,987.87
2018-03-15T00:26:41.616Z,987.88
2018-03-15T00:27:51.612Z,987.9
2018-03-15T00:29:01.068Z,987.88
2018-03-15T00:30:11.064Z,987.94
2018-03-15T00:31:20.786Z,987.93
2018-03-15T00:32:30.783Z,987.95
2018-03-15T00:33:39.976Z,987.95
2018-03-15T00:34:49.974Z,988
2018-03-15T00:35:59.772Z,987.99
2018-03-15T00:37:09.345Z,988.02
2018-03-15T00:38:19.071Z,987.98
2018-03-15T00:39:28.527Z,987.98
2018-03-15T00:40:38.110Z,987.99
2018-03-15T00:41:47.576Z,987.99
2018-03-15T00:42:57.303Z,988
2018-03-15T00:44:07.296Z,988.02
2018-03-15T00:45:17.291Z,988.01
2018-03-15T00:46:26.747Z,988.07
2018-03-15T00:47:36.744Z,988.05
2018-03-15T00:48:46.742Z,988.03
2018-03-15T00:49:56.732Z,988.05
2018-03-15T00:51:06.455Z,988.05
2018-03-15T00:52:16.184Z,988.05
2018-03-15T00:53:25.906Z,988.07
2018-03-15T00:54:35.691Z,988.02
2018-03-15T00:55:45.707Z,988.03
2018-03-15T00:56:55.430Z,988.04
2018-03-15T00:58:05.156Z,988.04
2018-03-15T00:59:15.322Z,988.07
2018-03-15T01:00:25.040Z,988.04
2018-03-15T01:01:35.045Z,988.04
2018-03-15T01:02:44.769Z,988.02
2018-03-15T01:03:54.491Z,988.07
2018-03-15T01:05:04.220Z,988.11
2018-03-15T01:06:14.221Z,988.07
2018-03-15T01:07:24.214Z,988.08
2018-03-15T01:08:34.217Z,988.1
2018-03-15T01:09:43.948Z,988.11
2018-03-15T01:10:53.950Z,988.11
2018-03-15T01:12:03.677Z,988.19
2018-03-15T01:13:13.137Z,988.17
2018-03-15T01:14:23.133Z,988.15
2018-03-15T01:15:32.861Z,988.12
2018-03-15T01:16:42.862Z,988.12
2018-03-15T01:17:52.961Z,988.15
2018-03-15T01:19:02.694Z,988.18
2018-03-15T01:20:12.684Z,988.13
2018-03-15T01:21:22.671Z,988.15
2018-03-15T01:22:32.661Z,988.17
2018-03-15T01:23:42.653Z,988.16
2018-03-15T01:24:52.646Z,988.22
2018-03-15T01:26:02.641Z,988.23
2018-03-15T01:27:12.420Z,988.22
2018-03-15T01:28:22.452Z,988.27
2018-03-15T01:29:32.448Z,988.29
2018-03-15T01:30:41.908Z,988.28
2018-03-15T01:31:51.366Z,988.27
2018-03-15T01:33:00.826Z,988.27
2018-03-15T01:34:10.549Z,988.26
2018-03-15T01:35:20.538Z,988.27
2018-03-15T01:36:30.539Z,988.24
2018-03-15T01:37:39.732Z,988.24
2018-03-15T01:38:49.455Z,988.25
2018-03-15T01:39:59.450Z,988.24
2018-03-15T01:41:08.373Z,988.21
2018-03-15T01:42:17.558Z,988.27
2018-03-15T01:43:27.546Z,988.23
2018-03-15T01:44:37.587Z,988.27
2018-03-15T01:45:47.315Z,988.24
2018-03-15T01:46:57.313Z,988.16
2018-03-15T01:48:07.046Z,988.19
2018-03-15T01:49:17.046Z,988.18
2018-03-15T01:50:26.242Z,988.19
2018-03-15T01:51:36.248Z,988.2
2018-03-15T01:52:46.243Z,988.17
2018-03-15T01:53:56.242Z,988.24
2018-03-15T01:55:06.257Z,988.18
2018-03-15T01:56:16.251Z,988.2
2018-03-15T01:57:26.246Z,988.22
2018-03-15T01:58:35.974Z,988.2
2018-03-15T01:59:45.971Z,988.19
2018-03-15T02:00:55.696Z,988.19
2018-03-15T02:02:05.169Z,988.18
2018-03-15T02:03:14.896Z,988.14
2018-03-15T02:04:24.780Z,988.17
2018-03-15T02:05:34.765Z,988.14
2018-03-15T02:06:44.486Z,988.18
2018-03-15T02:07:54.215Z,988.17
2018-03-15T02:09:04.234Z,988.17
2018-03-15T02:10:14.224Z,988.17
2018-03-15T02:11:23.690Z,988.21
2018-03-15T02:12:33.692Z,988.25
2018-03-15T02:13:43.675Z,988.23
2018-03-15T02:14:53.669Z,988.22
2018-03-15T02:16:03.389Z,988.21
2018-03-15T02:17:12.896Z,988.18
2018-03-15T02:18:22.887Z,988.16
2018-03-15T02:19:32.614Z,988.2
2018-03-15T02:20:42.613Z,988.19
2018-03-15T02:21:52.646Z,988.13
2018-03-15T02:23:02.405Z,988.15
2018-03-15T02:24:12.133Z,988.13
2018-03-15T02:25:22.126Z,988.13
2018-03-15T02:26:31.581Z,988.13
2018-03-15T02:27:41.575Z,988.11
2018-03-15T02:28:51.301Z,988.14
2018-03-15T02:30:01.026Z,988.14
2018-03-15T02:31:10.491Z,988.1
2018-03-15T02:32:20.492Z,988.14
2018-03-15T02:33:30.501Z,988.17
2018-03-15T02:34:40.507Z,988.1
2018-03-15T02:35:50.535Z,988.13
2018-03-15T02:37:00.531Z,988.11
2018-03-15T02:38:10.540Z,988.09
2018-03-15T02:39:20.607Z,988.13
2018-03-15T02:40:30.403Z,988.09
2018-03-15T02:41:40.424Z,988.13
2018-03-15T02:42:50.164Z,988.09
2018-03-15T02:43:59.911Z,988.13
2018-03-15T02:45:09.910Z,988.16
2018-03-15T02:46:19.648Z,988.17
2018-03-15T02:47:29.652Z,988.15
2018-03-15T02:48:39.392Z,988.18
2018-03-15T02:49:49.392Z,988.17
2018-03-15T02:50:59.380Z,988.19
2018-03-15T02:52:09.121Z,988.15
2018-03-15T02:53:19.172Z,988.18
2018-03-15T02:54:29.170Z,988.14
2018-03-15T02:55:38.893Z,988.17
2018-03-15T02:56:48.931Z,988.19
2018-03-15T02:57:58.944Z,988.18
2018-03-15T02:59:08.139Z,988.16
2018-03-15T03:00:18.146Z,988.24
2018-03-15T03:01:27.874Z,988.21
2018-03-15T03:02:37.932Z,988.22
2018-03-15T03:03:47.935Z,988.21
2018-03-15T03:04:57.943Z,988.26
2018-03-15T03:06:07.678Z,988.24
2018-03-15T03:07:17.413Z,988.23
2018-03-15T03:08:27.418Z,988.29
2018-03-15T03:09:37.416Z,988.31
2018-03-15T03:10:47.147Z,988.3
2018-03-15T03:11:56.878Z,988.26
2018-03-15T03:13:06.878Z,988.32
2018-03-15T03:14:16.661Z,988.28
2018-03-15T03:15:26.383Z,988.31
2018-03-15T03:16:36.375Z,988.32
2018-03-15T03:17:46.104Z,988.3
2018-03-15T03:18:55.837Z,988.33
2018-03-15T03:20:05.330Z,988.34
2018-03-15T03:21:15.397Z,988.34
2018-03-15T03:22:25.390Z,988.34
2018-03-15T03:23:34.573Z,988.32
2018-03-15T03:24:44.561Z,988.33
2018-03-15T03:25:54.595Z,988.31
2018-03-15T03:27:04.318Z,988.34
2018-03-15T03:28:14.097Z,988.33
2018-03-15T03:29:24.158Z,988.31
2018-03-15T03:30:34.152Z,988.31
2018-03-15T03:31:43.352Z,988.25
2018-03-15T03:32:53.344Z,988.34
2018-03-15T03:34:03.333Z,988.35
2018-03-15T03:35:13.328Z,988.35
2018-03-15T03:36:23.052Z,988.34
2018-03-15T03:37:32.786Z,988.34
2018-03-15T03:38:42.780Z,988.32
2018-03-15T03:39:52.773Z,988.35
2018-03-15T03:41:02.502Z,988.35
2018-03-15T03:42:12.225Z,988.32
2018-03-15T03:43:22.221Z,988.35
2018-03-15T03:44:32.211Z,988.37
2018-03-15T03:45:42.203Z,988.34
2018-03-15T03:46:51.658Z,988.37
2018-03-15T03:48:01.382Z,988.4
2018-03-15T03:49:11.115Z,988.37
2018-03-15T03:50:21.111Z,988.41
2018-03-15T03:51:30.839Z,988.38
2018-03-15T03:52:40.560Z,988.4
2018-03-15T03:53:50.013Z,988.4
2018-03-15T03:54:59.470Z,988.42
2018-03-15T03:56:08.924Z,988.46
2018-03-15T03:57:18.916Z,988.45
2018-03-15T03:58:28.905Z,988.43
2018-03-15T03:59:38.902Z,988.43
2018-03-15T04:03:24.273Z,988.42
2018-03-15T04:04:34.319Z,988.43
2018-03-15T04:05:44.048Z,988.41
2018-03-15T04:06:53.769Z,988.44
2018-03-15T04:08:03.495Z,988.45
2018-03-15T04:09:13.521Z,988.47
2018-03-15T04:10:23.508Z,988.45
2018-03-15T04:11:33.498Z,988.48
2018-03-15T04:12:43.493Z,988.55
2018-03-15T04:13:53.481Z,988.54
2018-03-15T04:15:03.209Z,988.52
2018-03-15T04:16:13.205Z,988.59
2018-03-15T04:17:23.201Z,988.61
2018-03-15T04:18:33.195Z,988.57
2018-03-15T04:19:43.193Z,988.57
2018-03-15T04:20:53.304Z,988.66
2018-03-15T04:22:03.035Z,988.63
2018-03-15T04:23:13.027Z,988.67
2018-03-15T04:24:23.029Z,988.72
2018-03-15T04:25:32.753Z,988.71
2018-03-15T04:26:42.476Z,988.69
2018-03-15T04:27:51.932Z,988.7
2018-03-15T04:29:01.168Z,988.71
2018-03-15T04:30:10.890Z,988.75
2018-03-15T04:31:20.617Z,988.73
2018-03-15T04:32:30.342Z,988.72
2018-03-15T04:33:40.343Z,988.74
2018-03-15T04:34:50.339Z,988.71
2018-03-15T04:36:00.340Z,988.7
2018-03-15T04:37:09.832Z,988.74
2018-03-15T04:38:19.832Z,988.78
2018-03-15T04:39:29.821Z,988.79
2018-03-15T04:40:39.548Z,988.85
2018-03-15T04:41:49.532Z,988.9
2018-03-15T04:42:59.521Z,988.92
2018-03-15T04:44:09.251Z,988.9
2018-03-15T04:45:18.451Z,988.89
2018-03-15T04:46:28.448Z,988.91
2018-03-15T04:47:38.500Z,988.86
2018-03-15T04:48:48.552Z,988.91
2018-03-15T04:50:02.518Z,988.9
2018-03-15T04:51:12.639Z,988.91
2018-03-15T04:52:22.638Z,988.89
2018-03-15T04:53:32.631Z,988.94
2018-03-15T04:54:42.629Z,988.93
2018-03-15T04:55:52.364Z,988.91
2018-03-15T04:57:02.088Z,988.94
2018-03-15T04:58:11.810Z,989
2018-03-15T04:59:20.993Z,988.96
2018-03-15T05:00:30.454Z,988.98
2018-03-15T05:01:40.775Z,989.02
2018-03-15T05:02:50.233Z,989.03
2018-03-15T05:04:00.224Z,989.01
2018-03-15T05:05:10.216Z,989
2018-03-15T05:06:19.947Z,989
2018-03-15T05:07:29.675Z,989.01
2018-03-15T05:08:39.666Z,989.03
2018-03-15T05:09:49.665Z,989.02
2018-03-15T05:10:59.664Z,989.02
2018-03-15T05:12:09.770Z,989.02
2018-03-15T05:13:19.826Z,989.02
2018-03-15T05:14:29.287Z,989.05
2018-03-15T05:15:38.477Z,989.04
2018-03-15T05:16:48.457Z,989.06
2018-03-15T05:17:57.916Z,989.07
2018-03-15T05:19:07.374Z,989.09
2018-03-15T05:20:17.368Z,989.13
2018-03-15T05:21:27.092Z,989.15
2018-03-15T05:22:36.016Z,989.17
2018-03-15T05:23:46.006Z,989.15
2018-03-15T05:24:55.995Z,989.19
2018-03-15T05:26:05.979Z,989.18
2018-03-15T05:27:15.976Z,989.23
2018-03-15T05:28:25.978Z,989.22
2018-03-15T05:29:35.972Z,989.2
2018-03-15T05:30:45.697Z,989.27
2018-03-15T05:31:55.690Z,989.27
2018-03-15T05:33:05.415Z,989.29
2018-03-15T05:34:14.868Z,989.33
2018-03-15T05:35:24.589Z,989.3
2018-03-15T05:36:34.588Z,989.29
2018-03-15T05:37:44.583Z,989.3
2018-03-15T05:38:54.044Z,989.31
2018-03-15T05:40:04.040Z,989.36
2018-03-15T05:41:14.032Z,989.37
2018-03-15T05:42:24.024Z,989.4
2018-03-15T05:43:33.750Z,989.36
2018-03-15T05:44:43.744Z,989.38
2018-03-15T05:45:53.861Z,989.36
2018-03-15T05:47:03.588Z,989.37
2018-03-15T05:48:13.317Z,989.36
2018-03-15T05:49:22.785Z,989.35
2018-03-15T05:50:32.779Z,989.37
2018-03-15T05:51:42.498Z,989.37
2018-03-15T05:52:51.686Z,989.4
2018-03-15T05:54:01.682Z,989.4
2018-03-15T05:55:11.400Z,989.46
2018-03-15T05:56:20.321Z,989.46
2018-03-15T05:57:30.311Z,989.44
2018-03-15T05:58:40.315Z,989.52
2018-03-15T05:59:50.354Z,989.49
2018-03-15T06:01:00.345Z,989.53
2018-03-15T06:02:10.092Z,989.54
2018-03-15T06:03:19.815Z,989.54
2018-03-15T06:04:29.005Z,989.57
2018-03-15T06:05:38.467Z,989.59
2018-03-15T06:06:48.459Z,989.56
2018-03-15T06:07:58.445Z,989.57
2018-03-15T06:09:08.171Z,989.57
2018-03-15T06:10:18.173Z,989.6
2018-03-15T06:11:28.162Z,989.66
2018-03-15T06:12:37.890Z,989.68
2018-03-15T06:13:47.347Z,989.66
2018-03-15T06:14:56.823Z,989.71
2018-03-15T06:16:06.557Z,989.69
2018-03-15T06:17:15.745Z,989.68
2018-03-15T06:18:25.737Z,989.66
2018-03-15T06:19:35.737Z,989.69
2018-03-15T06:20:45.734Z,989.72
2018-03-15T06:21:55.741Z,989.71
2018-03-15T06:23:05.730Z,989.72
2018-03-15T06:24:15.722Z,989.73
2018-03-15T06:25:25.454Z,989.7
2018-03-15T06:26:35.463Z,989.71
2018-03-15T06:27:45.461Z,989.71
2018-03-15T06:28:55.201Z,989.68
2018-03-15T06:30:04.707Z,989.69
2018-03-15T06:31:14.430Z,989.65
2018-03-15T06:32:24.426Z,989.69
2018-03-15T06:33:33.902Z,989.73
2018-03-15T06:34:43.893Z,989.73
2018-03-15T06:35:53.887Z,989.76
2018-03-15T06:37:03.618Z,989.74
2018-03-15T06:38:13.091Z,989.8
2018-03-15T06:39:22.814Z,989.81
2018-03-15T06:40:32.273Z,989.79
2018-03-15T06:41:41.741Z,989.81
2018-03-15T06:42:51.198Z,989.81
2018-03-15T06:44:00.924Z,989.76
2018-03-15T06:45:10.923Z,989.84
2018-03-15T06:46:20.653Z,989.88
2018-03-15T06:47:30.644Z,989.89
2018-03-15T06:48:40.631Z,989.86
2018-03-15T06:49:50.623Z,989.88
2018-03-15T06:51:00.617Z,989.88
2018-03-15T06:52:10.667Z,989.86
2018-03-15T06:53:20.762Z,989.92
2018-03-15T06:54:30.483Z,989.96
2018-03-15T06:55:40.481Z,989.97
2018-03-15T06:56:50.478Z,989.96
2018-03-15T06:58:00.472Z,989.96
2018-03-15T06:59:10.473Z,989.96
2018-03-15T07:00:20.204Z,990.04
2018-03-15T07:01:29.933Z,990.07
2018-03-15T07:02:39.661Z,990.05
2018-03-15T07:03:48.991Z,990.06
2018-03-15T07:04:58.769Z,990.1
2018-03-15T07:06:08.787Z,990.1
2018-03-15T07:07:18.795Z,990.07
2018-03-15T07:08:28.790Z,990.12
2018-03-15T07:09:38.524Z,990.09
2018-03-15T07:10:48.520Z,990.08
2018-03-15T07:11:58.515Z,990.08
2018-03-15T07:13:08.256Z,990.12
2018-03-15T07:14:18.246Z,990.16
2018-03-15T07:15:27.975Z,990.16
2018-03-15T07:16:37.971Z,990.16
2018-03-15T07:17:48.034Z,990.17
2018-03-15T07:18:58.027Z,990.25
2018-03-15T07:20:07.484Z,990.25
2018-03-15T07:21:16.678Z,990.27
2018-03-15T07:22:26.680Z,990.27
2018-03-15T07:23:36.670Z,990.28
2018-03-15T07:24:46.393Z,990.3
2018-03-15T07:25:56.118Z,990.27
2018-03-15T07:27:06.110Z,990.27
2018-03-15T07:28:15.575Z,990.32
2018-03-15T07:29:25.616Z,990.27
2018-03-15T07:30:35.605Z,990.31
2018-03-15T07:31:45.598Z,990.31
2018-03-15T07:32:55.602Z,990.32
2018-03-15T07:34:05.596Z,990.31
2018-03-15T07:35:15.594Z,990.34
2018-03-15T07:36:25.615Z,990.35
2018-03-15T07:37:35.339Z,990.4
2018-03-15T07:38:45.070Z,990.39
2018-03-15T07:39:55.063Z,990.42
2018-03-15T07:41:05.060Z,990.37
2018-03-15T07:42:15.057Z,990.42
2018-03-15T07:43:25.083Z,990.4
2018-03-15T07:44:35.132Z,990.38
2018-03-15T07:45:44.861Z,990.36
2018-03-15T07:46:54.586Z,990.44
2018-03-15T07:48:04.579Z,990.4
2018-03-15T07:49:14.040Z,990.45
2018-03-15T07:50:24.008Z,990.46
2018-03-15T07:51:33.739Z,990.46
2018-03-15T07:52:43.462Z,990.44
2018-03-15T07:53:53.458Z,990.47
2018-03-15T07:55:03.448Z,990.45
2018-03-15T07:56:13.200Z,990.46
2018-03-15T07:57:22.926Z,990.41
2018-03-15T07:58:32.924Z,990.48
2018-03-15T07:59:42.922Z,990.49
2018-03-15T08:00:52.117Z,990.51
2018-03-15T08:02:01.362Z,990.57
2018-03-15T08:03:11.471Z,990.56
2018-03-15T08:04:21.468Z,990.54
2018-03-15T08:05:30.938Z,990.57
2018-03-15T08:06:40.948Z,990.57
2018-03-15T08:07:50.943Z,990.53
2018-03-15T08:09:00.675Z,990.57
2018-03-15T08:10:10.409Z,990.52
2018-03-15T08:11:20.405Z,990.53
2018-03-15T08:12:30.240Z,990.57
2018-03-15T08:13:40.237Z,990.62
2018-03-15T08:14:50.231Z,990.63
2018-03-15T08:16:00.232Z,990.64
2018-03-15T08:17:10.247Z,990.65
2018-03-15T08:18:20.297Z,990.65
2018-03-15T08:19:30.299Z,990.66
2018-03-15T08:20:40.335Z,990.66
2018-03-15T08:21:50.386Z,990.69
2018-03-15T08:23:00.444Z,990.73
2018-03-15T08:24:10.209Z,990.73
2018-03-15T08:25:20.129Z,990.72
2018-03-15T08:26:29.860Z,990.77
2018-03-15T08:27:39.856Z,990.79
2018-03-15T08:28:49.580Z,990.78
2018-03-15T08:29:59.600Z,990.78
2018-03-15T08:31:09.343Z,990.82
2018-03-15T08:32:19.078Z,990.84
2018-03-15T08:33:29.680Z,990.8
2018-03-15T08:34:39.704Z,990.8
2018-03-15T08:35:49.432Z,990.83
2018-03-15T08:36:59.434Z,990.85
2018-03-15T08:38:08.628Z,990.93
2018-03-15T08:39:18.627Z,990.9
2018-03-15T08:40:28.347Z,990.86
2018-03-15T08:41:38.354Z,990.9
2018-03-15T08:42:48.413Z,990.87
2018-03-15T08:43:58.405Z,990.9
2018-03-15T08:45:08.398Z,990.9
2018-03-15T08:46:18.403Z,990.89
2018-03-15T08:47:27.866Z,990.92
2018-03-15T08:48:37.594Z,990.94
2018-03-15T08:49:47.592Z,990.94
2018-03-15T08:50:57.051Z,990.94
2018-03-15T08:52:06.780Z,990.93
2018-03-15T08:53:16.279Z,990.93
2018-03-15T08:54:26.276Z,990.96
2018-03-15T08:55:35.744Z,990.92
2018-03-15T08:56:45.758Z,990.96
2018-03-15T08:57:55.772Z,990.95
2018-03-15T08:59:05.766Z,990.97
2018-03-15T09:00:15.512Z,990.95
2018-03-15T09:01:25.224Z,990.97
2018-03-15T09:02:34.686Z,990.94
2018-03-15T09:03:44.682Z,990.96
2018-03-15T09:04:54.728Z,990.96
2018-03-15T09:06:04.567Z,991
2018-03-15T09:07:14.536Z,990.99
2018-03-15T09:08:24.267Z,991.01
2018-03-15T09:09:34.009Z,991.01
2018-03-15T09:10:44.009Z,991
2018-03-15T09:11:53.788Z,991.02
2018-03-15T09:13:03.791Z,991.03
2018-03-15T09:14:13.526Z,991.06
2018-03-15T09:15:23.252Z,991.06
2018-03-15T09:16:32.984Z,991.05
2018-03-15T09:17:43.098Z,991.09
2018-03-15T09:18:53.098Z,991.13
2018-03-15T09:20:03.113Z,991.09
2018-03-15T09:21:13.109Z,991.11
2018-03-15T09:22:23.104Z,991.12
2018-03-15T09:23:32.839Z,991.15
2018-03-15T09:24:42.769Z,991.12
2018-03-15T09:25:52.793Z,991.13
2018-03-15T09:27:02.537Z,991.16
2018-03-15T09:28:12.587Z,991.18
2018-03-15T09:29:22.588Z,991.15
2018-03-15T09:30:32.701Z,991.13
2018-03-15T09:31:42.769Z,991.13
2018-03-15T09:32:52.586Z,991.18
2018-03-15T09:34:01.814Z,991.2
2018-03-15T09:35:11.975Z,991.2
2018-03-15T09:36:22.056Z,991.17
2018-03-15T09:37:32.130Z,991.23
2018-03-15T09:38:42.244Z,991.23
2018-03-15T09:39:51.760Z,991.17
2018-03-15T09:41:01.265Z,991.21
2018-03-15T09:42:11.430Z,991.21
2018-03-15T09:43:21.594Z,991.2
2018-03-15T09:44:31.763Z,991.22
2018-03-15T09:45:41.938Z,991.22
2018-03-15T09:46:51.833Z,991.26
2018-03-15T09:48:01.940Z,991.22
2018-03-15T09:49:12.028Z,991.26
2018-03-15T09:50:22.115Z,991.28
2018-03-15T09:51:31.626Z,991.26
2018-03-15T09:52:41.718Z,991.29
2018-03-15T09:53:51.824Z,991.28
2018-03-15T09:55:01.688Z,991.3
2018-03-15T09:56:11.780Z,991.29
2018-03-15T09:57:21.869Z,991.27
2018-03-15T09:58:31.946Z,991.26
2018-03-15T09:59:42.060Z,991.29
2018-03-15T10:00:52.132Z,991.27
2018-03-15T10:02:01.943Z,991.29
2018-03-15T10:03:12.072Z,991.29
2018-03-15T10:04:22.158Z,991.34
2018-03-15T10:05:32.247Z,991.31
2018-03-15T10:06:42.354Z,991.31
2018-03-15T10:07:51.850Z,991.29
2018-03-15T10:09:01.391Z,991.3
2018-03-15T10:10:11.607Z,991.31
2018-03-15T10:11:21.755Z,991.33
2018-03-15T10:12:31.798Z,991.37
2018-03-15T10:13:41.874Z,991.37
2018-03-15T10:14:51.932Z,991.37
2018-03-15T10:16:01.756Z,991.34
2018-03-15T10:17:11.560Z,991.35
2018-03-15T10:18:21.352Z,991.34
2018-03-15T10:19:30.850Z,991.35
2018-03-15T10:20:40.928Z,991.39
2018-03-15T10:21:51.018Z,991.4
2018-03-15T10:23:01.198Z,991.39
2018-03-15T10:24:11.280Z,991.38
2018-03-15T10:25:26.393Z,991.4
2018-03-15T10:26:36.812Z,991.42
2018-03-15T10:27:46.612Z,991.38
2018-03-15T10:28:56.412Z,991.41
2018-03-15T10:30:06.215Z,991.43
2018-03-15T10:31:16.106Z,991.39
2018-03-15T10:32:25.902Z,991.4
2018-03-15T10:33:36.133Z,991.4
2018-03-15T10:34:46.776Z,991.39
2018-03-15T10:35:57.606Z,991.4
2018-03-15T10:37:08.293Z,991.46
2018-03-15T10:38:19.685Z,991.47
2018-03-15T10:39:31.466Z,991.46
2018-03-15T10:40:42.213Z,991.46
2018-03-15T10:41:53.920Z,991.46
2018-03-15T10:43:04.412Z,991.45
2018-03-15T10:44:14.215Z,991.5
2018-03-15T10:45:24.255Z,991.49
2018-03-15T10:46:34.442Z,991.53
2018-03-15T10:47:44.621Z,991.51
2018-03-15T10:48:54.847Z,991.54
2018-03-15T10:50:04.659Z,991.45
2018-03-15T10:51:14.464Z,991.49
2018-03-15T10:52:24.530Z,991.43
2018-03-15T10:53:34.613Z,991.43
2018-03-15T10:54:44.706Z,991.45
2018-03-15T10:55:54.794Z,991.42
2018-03-15T10:57:04.623Z,991.44
2018-03-15T10:58:14.457Z,991.44
2018-03-15T10:59:24.574Z,991.46
2018-03-15T11:00:34.702Z,991.48
2018-03-15T11:01:44.224Z,991.46
2018-03-15T11:02:54.352Z,991.45
2018-03-15T11:04:04.485Z,991.45
2018-03-15T11:05:14.566Z,991.47
2018-03-15T11:06:24.639Z,991.47
2018-03-15T11:07:34.463Z,991.48
2018-03-15T11:08:44.273Z,991.45
2018-03-15T11:09:54.344Z,991.52
2018-03-15T11:11:04.433Z,991.52
2018-03-15T11:12:14.227Z,991.5
2018-03-15T11:13:24.046Z,991.52
2018-03-15T11:14:34.787Z,991.49
2018-03-15T11:15:44.906Z,991.46
2018-03-15T11:16:54.709Z,991.48
2018-03-15T11:18:04.840Z,991.48
2018-03-15T11:19:15.040Z,991.44
2018-03-15T11:20:24.860Z,991.44
2018-03-15T11:21:34.667Z,991.44
2018-03-15T11:22:44.471Z,991.38
2018-03-15T11:23:54.370Z,991.41
2018-03-15T11:25:05.127Z,991.4
2018-03-15T11:26:15.258Z,991.44
2018-03-15T11:27:25.063Z,991.44
2018-03-15T11:28:34.888Z,991.45
2018-03-15T11:29:45.005Z,991.41
2018-03-15T11:30:55.092Z,991.42
2018-03-15T11:32:04.618Z,991.4
2018-03-15T11:33:14.702Z,991.45
2018-03-15T11:34:24.772Z,991.44
2018-03-15T11:35:34.573Z,991.49
2018-03-15T11:36:44.671Z,991.49
2018-03-15T11:37:55.811Z,991.5
2018-03-15T11:39:07.431Z,991.5
2018-03-15T11:40:19.512Z,991.54
2018-03-15T11:41:30.742Z,991.54
2018-03-15T11:42:42.602Z,991.5
2018-03-15T11:43:54.039Z,991.47
2018-03-15T11:45:04.110Z,991.44
2018-03-15T11:46:14.792Z,991.42
2018-03-15T11:47:24.928Z,991.41
2018-03-15T11:48:34.546Z,991.46
2018-03-15T11:49:44.807Z,991.46
2018-03-15T11:50:54.614Z,991.47
2018-03-15T11:52:04.413Z,991.44
2018-03-15T11:53:13.954Z,991.45
2018-03-15T11:54:24.054Z,991.48
2018-03-15T11:55:33.292Z,991.42
2018-03-15T11:56:43.150Z,991.42
2018-03-15T11:57:52.955Z,991.48
2018-03-15T11:59:03.097Z,991.43
2018-03-15T12:00:12.953Z,991.47
2018-03-15T12:01:22.750Z,991.47
2018-03-15T12:02:32.842Z,991.43
2018-03-15T12:03:42.945Z,991.47
2018-03-15T12:04:52.782Z,991.48
2018-03-15T12:06:02.845Z,991.45
2018-03-15T12:07:12.716Z,991.44
2018-03-15T12:08:22.796Z,991.46
2018-03-15T12:09:32.586Z,991.43
2018-03-15T12:10:42.668Z,991.47
2018-03-15T12:11:52.484Z,991.51
2018-03-15T12:13:02.589Z,991.47
2018-03-15T12:14:12.728Z,991.44
2018-03-15T12:15:22.817Z,991.47
2018-03-15T12:16:32.592Z,991.52
2018-03-15T12:17:42.604Z,991.52
2018-03-15T12:18:52.612Z,991.54
2018-03-15T12:20:02.086Z,991.54
2018-03-15T12:21:12.103Z,991.55
2018-03-15T12:22:22.116Z,991.52
2018-03-15T12:23:31.855Z,991.51
2018-03-15T12:24:41.588Z,991.49
2018-03-15T12:25:51.594Z,991.55
2018-03-15T12:27:01.063Z,991.7
2018-03-15T12:28:10.538Z,991.55
2018-03-15T12:29:20.294Z,991.56
2018-03-15T12:30:30.032Z,991.52
2018-03-15T12:31:40.045Z,991.65
2018-03-15T12:32:48.982Z,991.69
2018-03-15T12:33:59.004Z,991.66
2018-03-15T12:35:09.010Z,991.5
2018-03-15T12:36:18.755Z,991.49
2018-03-15T12:37:28.495Z,991.53
2018-03-15T12:38:38.268Z,991.57
2018-03-15T12:39:48.272Z,991.58
2018-03-15T12:40:57.747Z,991.51
2018-03-15T12:42:07.497Z,991.47
2018-03-15T12:43:17.513Z,991.67
2018-03-15T12:44:26.727Z,991.75
2018-03-15T12:45:36.736Z,991.64
2018-03-15T12:46:46.811Z,991.69
2018-03-15T12:47:56.926Z,991.67
2018-03-15T12:49:06.678Z,991.47
2018-03-15T12:50:16.691Z,991.53
2018-03-15T12:51:26.248Z,991.74
2018-03-15T12:52:36.266Z,991.65
2018-03-15T12:53:46.281Z,991.55
2018-03-15T12:54:55.759Z,991.64
2018-03-15T12:56:05.768Z,991.6
2018-03-15T12:57:15.707Z,991.55
2018-03-15T12:58:25.951Z,991.61
2018-03-15T12:59:35.967Z,991.66
2018-03-15T13:00:45.976Z,991.64
2018-03-15T13:01:55.990Z,991.63
2018-03-15T13:03:05.738Z,991.62
2018-03-15T13:04:15.225Z,991.64
2018-03-15T13:05:24.972Z,991.62
2018-03-15T13:06:34.714Z,991.64
2018-03-15T13:07:44.724Z,991.65
2018-03-15T13:08:54.739Z,991.71
2018-03-15T13:10:04.754Z,991.79
2018-03-15T13:11:14.503Z,991.83
2018-03-15T13:12:24.256Z,991.83
2018-03-15T13:13:34.272Z,991.71
2018-03-15T13:14:44.286Z,991.57
2018-03-15T13:15:54.302Z,991.47
2018-03-15T13:17:03.835Z,991.43
2018-03-15T13:18:13.589Z,991.45
2018-03-15T13:19:23.334Z,991.46
2018-03-15T13:20:33.078Z,991.49
2018-03-15T13:21:42.336Z,991.44
2018-03-15T13:22:52.136Z,991.44
2018-03-15T13:24:02.172Z,991.33
2018-03-15T13:25:11.650Z,991.3
2018-03-15T13:26:21.671Z,991.27
2018-03-15T13:27:31.157Z,991.32
2018-03-15T13:28:41.371Z,991.28
2018-03-15T13:29:51.383Z,991.27
2018-03-15T13:31:01.402Z,991.37
2018-03-15T13:32:10.881Z,991.43
2018-03-15T13:33:19.822Z,991.39
2018-03-15T13:34:29.889Z,991.35
2018-03-15T13:35:39.805Z,991.29
2018-03-15T13:36:49.813Z,991.27
2018-03-15T13:37:59.550Z,991.36
2018-03-15T13:39:09.335Z,991.31
2018-03-15T13:40:19.281Z,991.31
2018-03-15T13:41:28.758Z,991.26
2018-03-15T13:42:38.774Z,991.3
2018-03-15T13:43:48.783Z,991.37
2018-03-15T13:44:58.839Z,991.37
2018-03-15T13:46:08.073Z,991.3
2018-03-15T13:47:17.547Z,991.31
2018-03-15T13:48:27.611Z,991.37
2018-03-15T13:49:37.881Z,991.35
2018-03-15T13:50:47.723Z,991.38
2018-03-15T13:51:57.781Z,991.37
2018-03-15T13:53:07.937Z,991.38
2018-03-15T13:54:17.947Z,991.38
2018-03-15T13:55:27.693Z,991.32
2018-03-15T13:56:37.433Z,991.33
2018-03-15T13:57:47.441Z,991.31
2018-03-15T13:58:57.461Z,991.32
2018-03-15T14:00:06.934Z,991.39
2018-03-15T14:01:16.939Z,991.39
2018-03-15T14:02:26.414Z,991.35
2018-03-15T14:03:36.526Z,991.46
2018-03-15T14:04:46.644Z,991.51
2018-03-15T14:05:56.656Z,991.45
2018-03-15T14:07:05.904Z,991.52
2018-03-15T14:08:15.645Z,991.48
2018-03-15T14:09:25.385Z,991.3
2018-03-15T14:10:35.397Z,991.36
2018-03-15T14:11:45.157Z,991.43
2018-03-15T14:12:55.167Z,991.46
2018-03-15T14:14:04.643Z,991.36
2018-03-15T14:15:14.115Z,991.54
2018-03-15T14:16:24.188Z,991.54
2018-03-15T14:17:33.930Z,991.38
2018-03-15T14:18:43.761Z,991.46
2018-03-15T14:19:53.783Z,991.48
2018-03-15T14:21:03.258Z,991.43
2018-03-15T14:22:13.004Z,991.39
2018-03-15T14:23:22.763Z,991.44
2018-03-15T14:24:32.506Z,991.4
2018-03-15T14:25:41.975Z,991.41
2018-03-15T14:26:52.025Z,991.4
2018-03-15T14:28:02.027Z,991.35
2018-03-15T14:29:11.771Z,991.37
2018-03-15T14:30:22.178Z,991.42
2018-03-15T14:31:32.196Z,991.38
2018-03-15T14:32:42.206Z,991.35
2018-03-15T14:33:52.212Z,991.37
2018-03-15T14:35:01.963Z,991.41
2018-03-15T14:36:11.974Z,991.35
2018-03-15T14:37:21.979Z,991.35
2018-03-15T14:38:32.004Z,991.29